Portada
METAR-TAF:

METAR-TAF

Aeroports :

Bydgoszcz, Polònia

latitud: 53-05-48N, longitud: 017-58-40E, altitud: 72 m

Observació

L'informe es va fer fa 17 minuts, a les 01:30 UTC
Vent 1 kt amb direcció variable
Temperatura 11°C
Humitat 82%
Pressió 1020 hPa
Visibilitat 10 km o més
sense núvols per sota de 1500 mi sense presència de cumulonimbus.

METAR: EPBY 160130Z VRB01KT CAVOK 11/08 Q1020

Hora: 03:47 (01:47 UTC)

Pronòstic

L'informe es va fer fa 2 hores i 17 minuts, a les 23:30 UTC
Pronòstic vàlid del 16 a les 00 UTC al 16 a les 24 UTC
Vent 8 kt del Est/Nord-Est
Visibilitat 10 km o més
sense núvols per sota de 1500 mi sense presència de cumulonimbus.

TAF: EPBY 152330Z 1600/1624 06008KT CAVOK

Observacions i pronòstics meteorològics de més de 4000 aeroports (METAR i TAF).

Les estacions disponibles són els punts grocs i vermells al mapa.

Posi el ratolí al punt desitjat per veure el nom de l'estació.

Feu clic per veure les observacions i els pronòstics meteorològics.

Per canviar el mapa: feu clic els botons verds amb una creu de color negre per apropar; al botó verd amb un guió per allunyar la imatge; o en les fletxes verdes per a mapes adjacents.


METAR-TAF: